createdAt,value
2022-12-22T00:01:52.188Z,24.95
2022-12-22T00:04:37.404Z,28.75
2022-12-22T00:07:22.509Z,33.70
2022-12-22T00:10:07.784Z,32.53
2022-12-22T00:12:53.158Z,29.10
2022-12-22T00:15:38.928Z,32.05
2022-12-22T00:18:24.541Z,28.85
2022-12-22T00:21:09.725Z,29.95
2022-12-22T00:23:54.845Z,26.55
2022-12-22T00:26:40.082Z,27.23
2022-12-22T00:29:25.665Z,28.58
2022-12-22T00:32:10.854Z,27.55
2022-12-22T00:35:00.221Z,29.38
2022-12-22T00:37:51.373Z,27.70
2022-12-22T00:43:22.931Z,22.13
2022-12-22T00:46:09.243Z,25.20
2022-12-22T00:48:54.531Z,25.48
2022-12-22T00:51:39.593Z,24.98
2022-12-22T00:54:28.120Z,27.10
2022-12-22T00:57:13.401Z,25.35
2022-12-22T00:59:59.019Z,26.83
2022-12-22T01:02:43.980Z,26.33
2022-12-22T01:05:29.134Z,26.77
2022-12-22T01:08:14.806Z,24.20
2022-12-22T01:11:00.436Z,25.15
2022-12-22T01:13:46.690Z,23.63
2022-12-22T01:16:32.303Z,21.85
2022-12-22T01:19:17.541Z,24.38
2022-12-22T01:22:02.925Z,24.42
2022-12-22T01:24:48.748Z,24.02
2022-12-22T01:27:34.531Z,22.30
2022-12-22T01:30:20.255Z,23.05
2022-12-22T01:33:05.313Z,22.05
2022-12-22T01:35:53.026Z,22.77
2022-12-22T01:38:38.273Z,21.02
2022-12-22T01:41:24.374Z,21.02
2022-12-22T01:44:09.522Z,21.60
2022-12-22T01:46:59.744Z,22.67
2022-12-22T01:49:52.640Z,20.63
2022-12-22T01:52:39.256Z,21.55
2022-12-22T01:55:27.023Z,20.60
2022-12-22T01:58:12.253Z,19.90
2022-12-22T02:00:58.014Z,21.33
2022-12-22T02:03:43.466Z,20.77
2022-12-22T02:06:45.957Z,22.13
2022-12-22T02:09:43.280Z,20.85
2022-12-22T02:13:02.894Z,20.55
2022-12-22T02:15:53.635Z,19.70
2022-12-22T02:18:45.026Z,19.15
2022-12-22T02:21:32.571Z,20.92
2022-12-22T02:24:37.060Z,19.63
2022-12-22T02:27:22.321Z,21.00
2022-12-22T02:30:13.244Z,19.20
2022-12-22T02:33:07.090Z,18.70
2022-12-22T02:36:16.868Z,17.77
2022-12-22T02:39:08.239Z,17.27
2022-12-22T02:42:15.148Z,17.58
2022-12-22T02:45:33.113Z,18.13
2022-12-22T02:48:25.963Z,17.90
2022-12-22T02:51:16.089Z,18.20
2022-12-22T02:54:01.373Z,17.60
2022-12-22T02:56:46.571Z,17.38
2022-12-22T02:59:31.786Z,18.42
2022-12-22T03:02:17.328Z,18.17
2022-12-22T03:05:02.268Z,17.98
2022-12-22T03:07:47.083Z,15.90
2022-12-22T03:10:32.224Z,16.58
2022-12-22T03:13:18.624Z,16.52
2022-12-22T03:16:03.627Z,17.38
2022-12-22T03:18:48.770Z,17.10
2022-12-22T03:21:34.047Z,16.17
2022-12-22T03:24:19.119Z,15.02
2022-12-22T03:26:45.616Z,16.67
2022-12-22T03:29:12.186Z,17.02
2022-12-22T03:31:38.733Z,17.75
2022-12-22T03:34:05.286Z,18.13
2022-12-22T03:36:31.861Z,18.08
2022-12-22T03:38:58.393Z,18.88
2022-12-22T03:41:43.542Z,20.65
2022-12-22T03:44:28.713Z,19.30
2022-12-22T03:46:55.295Z,20.75
2022-12-22T03:49:22.989Z,20.33
2022-12-22T03:51:51.031Z,20.75
2022-12-22T03:54:22.729Z,20.65
2022-12-22T03:56:49.730Z,24.77
2022-12-22T03:59:16.996Z,24.92
2022-12-22T04:01:46.471Z,22.77
2022-12-22T04:04:14.951Z,22.50
2022-12-22T04:06:41.709Z,23.35
2022-12-22T04:09:08.439Z,21.70
2022-12-22T04:11:54.157Z,24.88
2022-12-22T04:14:21.694Z,23.55
2022-12-22T04:16:48.725Z,21.10
2022-12-22T04:19:16.138Z,23.10
2022-12-22T04:21:43.164Z,22.77
2022-12-22T04:24:11.369Z,22.73
2022-12-22T04:26:38.089Z,22.40
2022-12-22T04:29:04.686Z,23.42
2022-12-22T04:31:31.343Z,22.83
2022-12-22T04:33:58.567Z,22.92
2022-12-22T04:36:25.091Z,24.30
2022-12-22T04:38:51.591Z,23.20
2022-12-22T04:41:18.156Z,24.17
2022-12-22T04:43:44.700Z,24.98
2022-12-22T04:46:11.340Z,27.15
2022-12-22T04:48:37.859Z,24.02
2022-12-22T04:51:04.595Z,26.40
2022-12-22T04:53:31.958Z,25.42
2022-12-22T04:56:04.135Z,25.92
2022-12-22T04:58:31.294Z,25.73
2022-12-22T05:00:58.254Z,24.77
2022-12-22T05:03:24.947Z,25.30
2022-12-22T05:05:51.476Z,25.20
2022-12-22T05:08:17.985Z,26.30
2022-12-22T05:10:44.703Z,25.88
2022-12-22T05:13:11.248Z,25.30
2022-12-22T05:15:37.807Z,26.13
2022-12-22T05:18:04.589Z,25.27
2022-12-22T05:20:32.021Z,26.58
2022-12-22T05:22:58.884Z,24.73
2022-12-22T05:25:29.951Z,26.33
2022-12-22T05:27:59.492Z,26.77
2022-12-22T05:30:26.439Z,25.65
2022-12-22T05:32:53.015Z,26.25
2022-12-22T05:35:19.596Z,26.55
2022-12-22T05:37:46.144Z,26.48
2022-12-22T05:40:12.812Z,25.20
2022-12-22T05:42:39.615Z,26.23
2022-12-22T05:45:18.126Z,27.20
2022-12-22T05:47:47.543Z,28.75
2022-12-22T05:50:15.398Z,29.20
2022-12-22T05:52:43.919Z,28.27
2022-12-22T05:55:11.130Z,27.05
2022-12-22T05:57:38.418Z,26.83
2022-12-22T06:00:06.940Z,27.20
2022-12-22T06:02:39.316Z,27.20
2022-12-22T06:05:06.658Z,27.58
2022-12-22T06:07:33.124Z,25.77
2022-12-22T06:09:59.730Z,28.27
2022-12-22T06:12:26.335Z,27.55
2022-12-22T06:14:52.840Z,27.02
2022-12-22T06:17:19.413Z,28.73
2022-12-22T06:19:45.920Z,27.70
2022-12-22T06:22:12.431Z,29.08
2022-12-22T06:24:38.998Z,28.58
2022-12-22T06:27:05.680Z,29.48
2022-12-22T06:29:32.212Z,26.92
2022-12-22T06:31:58.739Z,27.80
2022-12-22T06:34:25.231Z,28.48
2022-12-22T06:36:51.766Z,27.55
2022-12-22T06:39:18.293Z,30.25
2022-12-22T06:42:03.503Z,30.10
2022-12-22T06:44:30.022Z,26.55
2022-12-22T06:46:56.680Z,27.48
2022-12-22T06:49:23.497Z,28.30
2022-12-22T06:51:50.388Z,26.77
2022-12-22T06:54:22.253Z,26.25
2022-12-22T06:56:52.357Z,26.13
2022-12-22T06:59:19.316Z,28.75
2022-12-22T07:01:47.083Z,28.02
2022-12-22T07:04:19.676Z,28.65
2022-12-22T07:06:47.880Z,26.38
2022-12-22T07:09:14.557Z,25.65
2022-12-22T07:11:41.559Z,25.60
2022-12-22T07:14:08.105Z,26.00
2022-12-22T07:16:34.785Z,27.70
2022-12-22T07:19:01.377Z,26.45
2022-12-22T07:21:28.025Z,27.80
2022-12-22T07:23:54.516Z,24.38
2022-12-22T07:26:21.083Z,26.52
2022-12-22T07:28:47.581Z,28.00
2022-12-22T07:31:16.029Z,24.77
2022-12-22T07:33:42.586Z,25.35
2022-12-22T07:36:14.618Z,27.38
2022-12-22T07:38:42.673Z,24.30
2022-12-22T07:41:28.941Z,23.90
2022-12-22T07:43:57.471Z,25.83
2022-12-22T07:46:25.344Z,25.38
2022-12-22T07:49:10.644Z,25.23
2022-12-22T07:51:39.238Z,24.30
2022-12-22T07:54:06.067Z,23.55
2022-12-22T07:56:32.621Z,24.55
2022-12-22T07:58:59.522Z,23.23
2022-12-22T08:01:26.682Z,23.55
2022-12-22T08:03:53.351Z,25.00
2022-12-22T08:06:20.838Z,25.42
2022-12-22T08:08:47.424Z,22.27
2022-12-22T08:11:13.983Z,23.27
2022-12-22T08:13:40.623Z,22.95
2022-12-22T08:16:09.236Z,23.48
2022-12-22T08:18:36.024Z,23.95
2022-12-22T08:21:03.855Z,24.90
2022-12-22T08:23:31.028Z,19.92
2022-12-22T08:26:12.136Z,25.13
2022-12-22T08:28:47.533Z,22.80
2022-12-22T08:31:14.316Z,24.10
2022-12-22T08:33:40.837Z,23.15
2022-12-22T08:36:08.571Z,23.85
2022-12-22T08:38:36.791Z,21.02
2022-12-22T08:41:03.380Z,20.67
2022-12-22T08:43:31.470Z,19.25
2022-12-22T08:45:57.992Z,21.75
2022-12-22T08:48:24.539Z,20.92
2022-12-22T08:50:51.068Z,20.65
2022-12-22T08:53:37.610Z,19.80
2022-12-22T08:56:04.336Z,20.08
2022-12-22T08:58:31.934Z,22.25
2022-12-22T09:00:59.561Z,18.10
2022-12-22T09:03:26.181Z,19.73
2022-12-22T09:05:52.737Z,19.42
2022-12-22T09:08:19.339Z,19.17
2022-12-22T09:10:46.218Z,18.65
2022-12-22T09:13:12.826Z,20.50
2022-12-22T09:15:39.362Z,21.38
2022-12-22T09:18:05.932Z,21.30
2022-12-22T09:20:35.071Z,17.23
2022-12-22T09:23:01.672Z,19.45
2022-12-22T09:25:28.327Z,18.50
2022-12-22T09:27:54.912Z,17.55
2022-12-22T09:30:21.519Z,17.45
2022-12-22T09:32:48.188Z,18.40
2022-12-22T09:35:14.904Z,17.40
2022-12-22T09:37:41.846Z,15.95
2022-12-22T09:40:09.157Z,17.38
2022-12-22T09:42:35.813Z,16.98
2022-12-22T09:45:02.736Z,17.77
2022-12-22T09:47:38.793Z,18.75
2022-12-22T09:50:08.776Z,17.35
2022-12-22T09:52:35.351Z,16.85
2022-12-22T09:55:13.458Z,17.90
2022-12-22T09:57:40.016Z,17.65
2022-12-22T10:00:14.457Z,16.90
2022-12-22T10:03:05.500Z,15.75
2022-12-22T10:05:39.547Z,16.85
2022-12-22T10:08:14.635Z,15.60
2022-12-22T10:10:41.731Z,11.13
2022-12-22T10:13:17.012Z,15.73
2022-12-22T10:15:44.425Z,15.95
2022-12-22T10:18:23.973Z,16.73
2022-12-22T10:21:30.286Z,13.93
2022-12-22T10:23:56.868Z,14.52
2022-12-22T10:26:31.463Z,13.85
2022-12-22T10:29:04.607Z,16.55
2022-12-22T10:31:35.794Z,15.15
2022-12-22T10:34:13.012Z,15.80
2022-12-22T10:36:40.043Z,16.63
2022-12-22T10:39:10.922Z,15.88
2022-12-22T10:41:43.430Z,15.93
2022-12-22T10:44:16.113Z,16.75
2022-12-22T10:46:45.005Z,17.33
2022-12-22T10:49:17.313Z,16.65
2022-12-22T10:51:46.822Z,15.93
2022-12-22T10:54:33.791Z,16.27
2022-12-22T10:57:34.726Z,16.20
2022-12-22T11:00:09.800Z,14.30
2022-12-22T11:02:38.487Z,14.15
2022-12-22T11:05:08.200Z,15.98
2022-12-22T11:07:45.473Z,15.75
2022-12-22T11:10:39.757Z,14.63
2022-12-22T11:13:22.149Z,14.48
2022-12-22T11:16:28.411Z,15.88
2022-12-22T11:19:20.768Z,15.88
2022-12-22T11:21:56.327Z,15.50
2022-12-22T11:24:31.458Z,15.07
2022-12-22T11:27:19.750Z,15.52
2022-12-22T11:30:04.616Z,15.40
2022-12-22T11:32:53.670Z,15.43
2022-12-22T11:35:44.950Z,14.90
2022-12-22T11:38:18.557Z,15.32
2022-12-22T11:40:48.314Z,15.43
2022-12-22T11:43:20.802Z,15.48
2022-12-22T11:45:54.050Z,16.25
2022-12-22T11:48:31.121Z,16.70
2022-12-22T11:51:13.712Z,16.00
2022-12-22T11:54:10.822Z,16.67
2022-12-22T11:56:39.871Z,16.08
2022-12-22T11:59:15.970Z,16.30
2022-12-22T12:02:04.233Z,16.35
2022-12-22T12:04:49.803Z,15.98
2022-12-22T12:07:25.943Z,16.10
2022-12-22T12:10:17.380Z,17.58
2022-12-22T12:12:50.220Z,17.55
2022-12-22T12:15:28.201Z,17.67
2022-12-22T12:18:03.082Z,17.88
2022-12-22T12:20:46.305Z,16.77
2022-12-22T12:23:12.892Z,17.25
2022-12-22T12:25:55.702Z,17.10
2022-12-22T12:28:28.217Z,18.80
2022-12-22T12:30:59.825Z,18.70
2022-12-22T12:33:36.602Z,20.05
2022-12-22T12:36:15.678Z,18.55
2022-12-22T12:39:33.543Z,18.63
2022-12-22T12:42:26.364Z,20.90
2022-12-22T12:44:53.543Z,20.55
2022-12-22T12:47:34.463Z,19.30
2022-12-22T12:50:28.926Z,19.35
2022-12-22T12:52:55.329Z,18.48
2022-12-22T12:55:31.562Z,18.70
2022-12-22T12:58:00.988Z,19.08
2022-12-22T13:00:33.678Z,18.67
2022-12-22T13:03:20.006Z,18.83
2022-12-22T13:06:02.321Z,20.35
2022-12-22T13:10:58.803Z,18.10
2022-12-22T13:13:25.357Z,17.88
2022-12-22T13:16:00.776Z,17.40
2022-12-22T13:18:30.458Z,18.75
2022-12-22T13:21:50.915Z,18.27
2022-12-22T13:24:23.012Z,17.23
2022-12-22T13:26:43.539Z,17.58
2022-12-22T13:29:35.874Z,20.90
2022-12-22T13:32:12.250Z,20.80
2022-12-22T13:35:28.914Z,18.30
2022-12-22T13:37:41.681Z,21.00
2022-12-22T13:40:16.105Z,18.73
2022-12-22T13:42:49.208Z,16.58
2022-12-22T13:45:37.975Z,19.27
2022-12-22T13:48:30.478Z,20.38
2022-12-22T13:51:00.263Z,19.33
2022-12-22T13:56:26.036Z,16.17
2022-12-22T13:58:59.611Z,16.63
2022-12-22T14:01:26.361Z,16.92
2022-12-22T14:04:03.592Z,15.25
2022-12-22T14:06:35.747Z,14.15
2022-12-22T14:09:15.882Z,14.85
2022-12-22T14:11:55.270Z,13.90
2022-12-22T14:14:27.524Z,14.38
2022-12-22T14:16:56.876Z,14.38
2022-12-22T14:19:24.937Z,11.85
2022-12-22T14:22:05.537Z,12.95
2022-12-22T14:24:38.255Z,13.95
2022-12-22T14:27:06.740Z,14.13
2022-12-22T14:29:33.404Z,14.65
2022-12-22T14:32:02.048Z,11.90
2022-12-22T14:34:31.411Z,12.55
2022-12-22T14:36:58.675Z,9.27
2022-12-22T14:39:27.503Z,11.52
2022-12-22T14:41:56.144Z,9.98
2022-12-22T14:44:22.707Z,12.00
2022-12-22T14:47:06.301Z,9.23
2022-12-22T14:49:33.606Z,9.15
2022-12-22T14:52:07.554Z,8.85
2022-12-22T14:54:34.598Z,8.85
2022-12-22T14:57:15.560Z,9.13
2022-12-22T15:00:01.454Z,8.07
2022-12-22T15:02:39.996Z,7.32
2022-12-22T15:05:16.156Z,6.82
2022-12-22T15:10:49.816Z,6.38
2022-12-22T15:13:23.025Z,7.53
2022-12-22T15:15:50.807Z,7.88
2022-12-22T15:18:17.863Z,7.07
2022-12-22T15:20:44.590Z,8.30
2022-12-22T15:23:17.123Z,8.02
2022-12-22T15:25:44.454Z,8.80
2022-12-22T15:28:11.050Z,8.88
2022-12-22T15:30:37.910Z,9.77
2022-12-22T15:33:04.588Z,9.88
2022-12-22T15:35:33.251Z,9.50
2022-12-22T15:38:00.119Z,10.60
2022-12-22T15:40:27.661Z,11.20
2022-12-22T15:42:54.560Z,10.55
2022-12-22T15:45:22.196Z,8.88
2022-12-22T15:47:51.616Z,8.77
2022-12-22T15:50:20.886Z,11.02
2022-12-22T15:52:51.649Z,10.55
2022-12-22T15:55:19.250Z,10.52
2022-12-22T15:57:47.470Z,9.75
2022-12-22T16:00:15.226Z,8.93
2022-12-22T16:02:41.902Z,9.02
2022-12-22T16:05:09.604Z,9.57
2022-12-22T16:07:37.233Z,9.50
2022-12-22T16:10:05.070Z,10.38
2022-12-22T16:12:32.335Z,10.43
2022-12-22T16:14:59.534Z,12.13
2022-12-22T16:17:27.676Z,12.85
2022-12-22T16:19:54.232Z,13.90
2022-12-22T16:22:29.913Z,12.95
2022-12-22T16:24:56.626Z,14.75
2022-12-22T16:27:23.185Z,14.48
2022-12-22T16:29:52.069Z,16.08
2022-12-22T16:32:29.836Z,16.08
2022-12-22T16:35:01.327Z,15.70
2022-12-22T16:37:27.871Z,15.95
2022-12-22T16:39:54.549Z,14.43
2022-12-22T16:45:07.220Z,15.27
2022-12-22T16:47:35.472Z,16.33
2022-12-22T16:50:02.089Z,15.82
2022-12-22T16:52:35.552Z,16.83
2022-12-22T16:55:02.319Z,16.40
2022-12-22T16:57:28.999Z,16.13
2022-12-22T16:59:55.746Z,16.58
2022-12-22T17:02:29.615Z,18.52
2022-12-22T17:04:58.123Z,18.25
2022-12-22T17:07:24.686Z,19.90
2022-12-22T17:09:54.272Z,20.10
2022-12-22T17:12:24.424Z,19.45
2022-12-22T17:14:52.385Z,21.13
2022-12-22T17:17:30.902Z,20.35
2022-12-22T17:19:59.869Z,21.02
2022-12-22T17:22:28.747Z,22.02
2022-12-22T17:24:57.433Z,20.90
2022-12-22T17:27:27.843Z,22.30
2022-12-22T17:29:55.277Z,19.90
2022-12-22T17:32:22.015Z,20.83
2022-12-22T17:34:49.383Z,22.27
2022-12-22T17:37:17.778Z,22.02
2022-12-22T17:39:45.771Z,22.30
2022-12-22T17:42:22.858Z,21.08
2022-12-22T17:44:50.342Z,21.70
2022-12-22T17:47:29.075Z,23.42
2022-12-22T17:52:27.033Z,23.15
2022-12-22T17:54:53.959Z,24.75
2022-12-22T17:57:32.922Z,24.05
2022-12-22T18:00:00.541Z,27.80
2022-12-22T18:02:27.279Z,25.23
2022-12-22T18:04:53.881Z,26.52
2022-12-22T18:07:22.674Z,27.55
2022-12-22T18:09:50.130Z,27.67
2022-12-22T18:12:21.113Z,29.88
2022-12-22T18:14:49.049Z,27.23
2022-12-22T18:17:31.643Z,27.27
2022-12-22T18:20:01.977Z,27.08
2022-12-22T18:22:29.545Z,26.40
2022-12-22T18:24:56.435Z,25.90
2022-12-22T18:27:23.229Z,21.77
2022-12-22T18:29:49.899Z,24.42
2022-12-22T18:32:25.253Z,22.02
2022-12-22T18:34:53.848Z,23.75
2022-12-22T18:37:20.355Z,25.73
2022-12-22T18:39:46.978Z,22.02
2022-12-22T18:42:20.697Z,25.50
2022-12-22T18:44:47.658Z,23.25
2022-12-22T18:47:14.457Z,24.98
2022-12-22T18:49:41.030Z,20.95
2022-12-22T18:52:21.970Z,22.88
2022-12-22T18:54:49.132Z,23.50
2022-12-22T18:57:19.667Z,21.42
2022-12-22T18:59:47.564Z,23.50
2022-12-22T19:02:29.097Z,22.27
2022-12-22T19:04:56.410Z,22.52
2022-12-22T19:07:24.983Z,23.50
2022-12-22T19:09:51.961Z,23.15
2022-12-22T19:12:21.985Z,23.92
2022-12-22T19:14:51.729Z,25.05
2022-12-22T19:17:20.611Z,23.70
2022-12-22T19:19:47.335Z,24.52
2022-12-22T19:22:15.294Z,24.85
2022-12-22T19:24:44.752Z,24.17
2022-12-22T19:27:18.064Z,25.90
2022-12-22T19:29:45.161Z,24.38
2022-12-22T19:32:23.267Z,26.05
2022-12-22T19:34:50.016Z,24.17
2022-12-22T19:37:16.640Z,26.00
2022-12-22T19:39:43.163Z,25.33
2022-12-22T19:42:17.373Z,24.20
2022-12-22T19:44:44.240Z,23.75
2022-12-22T19:47:22.109Z,23.80
2022-12-22T19:49:48.666Z,24.05
2022-12-22T19:52:15.235Z,26.58
2022-12-22T19:54:41.751Z,25.30
2022-12-22T19:57:18.992Z,25.77
2022-12-22T19:59:47.304Z,24.92
2022-12-22T20:02:26.576Z,25.88
2022-12-22T20:04:54.386Z,26.27
2022-12-22T20:07:22.778Z,28.00
2022-12-22T20:09:49.330Z,27.67
2022-12-22T20:12:37.471Z,26.67
2022-12-22T20:15:32.577Z,26.60
2022-12-22T20:17:59.119Z,26.13
2022-12-22T20:20:36.816Z,27.77
2022-12-22T20:23:06.844Z,26.35
2022-12-22T20:25:40.713Z,27.23
2022-12-22T20:28:37.593Z,27.83
2022-12-22T20:31:04.922Z,28.50
2022-12-22T20:33:31.756Z,28.55
2022-12-22T20:36:00.418Z,29.30
2022-12-22T20:38:38.504Z,27.35
2022-12-22T20:41:07.402Z,28.05
2022-12-22T20:43:35.157Z,27.83
2022-12-22T20:46:04.324Z,27.55
2022-12-22T20:48:44.927Z,28.13
2022-12-22T20:51:15.625Z,28.85
2022-12-22T20:53:43.399Z,27.35
2022-12-22T20:56:28.190Z,29.15
2022-12-22T20:58:55.079Z,28.10
2022-12-22T21:01:21.794Z,30.55
2022-12-22T21:03:48.362Z,31.20
2022-12-22T21:06:29.201Z,28.77
2022-12-22T21:08:58.111Z,33.50
2022-12-22T21:11:25.521Z,28.50
2022-12-22T21:13:52.272Z,29.50
2022-12-22T21:16:23.075Z,27.52
2022-12-22T21:18:50.708Z,26.60
2022-12-22T21:21:17.293Z,26.40
2022-12-22T21:23:43.872Z,28.73
2022-12-22T21:26:31.740Z,26.45
2022-12-22T21:28:59.937Z,30.05
2022-12-22T21:31:26.532Z,28.63
2022-12-22T21:33:53.079Z,28.38
2022-12-22T21:36:24.057Z,28.90
2022-12-22T21:39:32.501Z,29.00
2022-12-22T21:42:01.941Z,25.83
2022-12-22T21:44:29.704Z,28.33
2022-12-22T21:46:56.377Z,25.35
2022-12-22T21:49:24.598Z,28.20
2022-12-22T21:51:52.465Z,26.23
2022-12-22T21:54:20.232Z,26.45
2022-12-22T21:56:47.102Z,26.42
2022-12-22T21:59:14.172Z,27.10
2022-12-22T22:01:41.384Z,26.73
2022-12-22T22:04:08.728Z,25.63
2022-12-22T22:06:35.306Z,22.42
2022-12-22T22:09:04.687Z,24.95
2022-12-22T22:11:31.788Z,23.58
2022-12-22T22:13:58.275Z,24.08
2022-12-22T22:16:24.920Z,24.70
2022-12-22T22:18:51.615Z,24.58
2022-12-22T22:21:18.197Z,24.33
2022-12-22T22:23:44.721Z,23.42
2022-12-22T22:26:11.269Z,24.17
2022-12-22T22:28:38.119Z,23.77
2022-12-22T22:31:11.689Z,22.85
2022-12-22T22:33:38.382Z,23.27
2022-12-22T22:36:07.533Z,21.75
2022-12-22T22:38:34.314Z,20.77
2022-12-22T22:41:00.916Z,22.30
2022-12-22T22:43:27.462Z,21.85
2022-12-22T22:45:54.006Z,22.23
2022-12-22T22:48:21.971Z,22.02
2022-12-22T22:50:49.099Z,21.67
2022-12-22T22:53:15.871Z,23.08
2022-12-22T22:55:42.589Z,22.70
2022-12-22T22:58:11.401Z,22.52
2022-12-22T23:00:38.900Z,23.13
2022-12-22T23:03:05.658Z,22.40
2022-12-22T23:05:32.487Z,22.92
2022-12-22T23:07:59.029Z,21.73
2022-12-22T23:10:25.545Z,21.88
2022-12-22T23:12:52.182Z,21.67
2022-12-22T23:15:18.752Z,20.15
2022-12-22T23:17:45.288Z,19.73
2022-12-22T23:20:11.864Z,18.80
2022-12-22T23:22:38.743Z,20.75
2022-12-22T23:25:05.471Z,19.75
2022-12-22T23:27:32.038Z,20.42
2022-12-22T23:29:58.573Z,19.90
2022-12-22T23:32:25.128Z,20.40
2022-12-22T23:34:52.140Z,19.38
2022-12-22T23:37:19.568Z,19.00
2022-12-22T23:39:46.765Z,19.30
2022-12-22T23:42:13.359Z,19.15
2022-12-22T23:44:39.899Z,20.48
2022-12-22T23:47:06.920Z,18.85
2022-12-22T23:49:33.663Z,18.65
2022-12-22T23:52:00.228Z,19.65
2022-12-22T23:54:26.739Z,21.27
2022-12-22T23:56:53.274Z,18.67
2022-12-22T23:59:19.783Z,19.17
